createdAt,value
2019-01-27T00:01:37.728Z,89.70
2019-01-27T00:04:08.171Z,89.50
2019-01-27T00:06:39.084Z,89.60
2019-01-27T00:09:11.725Z,89.40
2019-01-27T00:11:42.201Z,89.20
2019-01-27T00:14:13.635Z,89.20
2019-01-27T00:16:44.090Z,89.40
2019-01-27T00:19:14.563Z,89.20
2019-01-27T00:21:45.039Z,89.10
2019-01-27T00:24:15.530Z,89.90
2019-01-27T00:26:45.997Z,88.80
2019-01-27T00:29:16.572Z,88.80
2019-01-27T00:31:47.041Z,88.60
2019-01-27T00:34:17.553Z,88.50
2019-01-27T00:36:48.004Z,88.30
2019-01-27T00:39:18.458Z,88.20
2019-01-27T00:41:48.927Z,88.20
2019-01-27T00:44:19.382Z,88.50
2019-01-27T00:46:49.856Z,88.30
2019-01-27T00:49:20.318Z,88.00
2019-01-27T00:51:50.857Z,88.00
2019-01-27T00:54:21.297Z,87.90
2019-01-27T00:56:51.744Z,87.90
2019-01-27T00:59:22.189Z,87.70
2019-01-27T01:01:52.714Z,87.70
2019-01-27T01:04:23.250Z,87.40
2019-01-27T01:06:53.728Z,87.30
2019-01-27T01:09:24.154Z,87.10
2019-01-27T01:11:55.146Z,86.90
2019-01-27T01:14:25.569Z,86.70
2019-01-27T01:16:56.023Z,86.70
2019-01-27T01:19:26.513Z,86.50
2019-01-27T01:21:56.954Z,86.50
2019-01-27T01:24:27.393Z,86.30
2019-01-27T01:26:58.802Z,86.20
2019-01-27T01:29:30.319Z,86.40
2019-01-27T01:32:00.754Z,86.80
2019-01-27T01:34:31.189Z,86.50
2019-01-27T01:37:01.634Z,86.40
2019-01-27T01:39:32.069Z,86.20
2019-01-27T01:42:02.523Z,86.30
2019-01-27T01:44:33.262Z,86.10
2019-01-27T01:47:03.994Z,85.90
2019-01-27T01:49:34.506Z,85.90
2019-01-27T01:52:05.582Z,85.60
2019-01-27T01:54:36.038Z,85.50
2019-01-27T01:57:06.490Z,85.30
2019-01-27T01:59:36.942Z,85.00
2019-01-27T02:02:07.495Z,85.20
2019-01-27T02:04:38.298Z,85.00
2019-01-27T02:07:08.737Z,84.80
2019-01-27T02:09:39.186Z,84.70
2019-01-27T02:12:09.642Z,84.60
2019-01-27T02:14:40.096Z,84.60
2019-01-27T02:17:10.549Z,84.40
2019-01-27T02:19:41.029Z,84.30
2019-01-27T02:22:11.490Z,84.30
2019-01-27T02:24:41.967Z,84.00
2019-01-27T02:27:12.483Z,83.90
2019-01-27T02:29:42.957Z,83.70
2019-01-27T02:32:13.417Z,83.70
2019-01-27T02:34:43.855Z,83.40
2019-01-27T02:37:14.315Z,83.50
2019-01-27T02:39:44.787Z,83.20
2019-01-27T02:42:15.238Z,82.90
2019-01-27T02:44:45.671Z,82.80
2019-01-27T02:47:16.134Z,82.40
2019-01-27T02:49:47.479Z,82.10
2019-01-27T02:52:18.897Z,82.00
2019-01-27T02:54:49.342Z,81.70
2019-01-27T02:57:19.789Z,81.60
2019-01-27T02:59:50.249Z,81.50
2019-01-27T03:02:21.697Z,81.40
2019-01-27T03:04:53.118Z,81.50
2019-01-27T03:07:32.549Z,81.60
2019-01-27T03:10:03.186Z,81.60
2019-01-27T03:12:33.623Z,81.70
2019-01-27T03:15:04.455Z,81.70
2019-01-27T03:17:34.923Z,81.90
2019-01-27T03:20:08.349Z,81.90
2019-01-27T03:22:38.806Z,81.90
2019-01-27T03:25:10.829Z,81.80
2019-01-27T03:27:41.319Z,82.00
2019-01-27T03:30:15.616Z,82.20
2019-01-27T03:32:46.195Z,82.80
2019-01-27T03:35:16.652Z,83.10
2019-01-27T03:37:47.156Z,83.50
2019-01-27T03:40:17.719Z,84.00
2019-01-27T03:42:48.486Z,84.20
2019-01-27T03:45:19.109Z,84.60
2019-01-27T03:47:49.570Z,84.90
2019-01-27T03:50:20.121Z,85.80
2019-01-27T03:52:50.731Z,84.70
2019-01-27T03:55:21.269Z,84.70
2019-01-27T03:57:51.726Z,84.60
2019-01-27T04:00:22.247Z,84.70
2019-01-27T04:02:52.775Z,84.70
2019-01-27T04:05:23.287Z,84.60
2019-01-27T04:07:53.784Z,84.60
2019-01-27T04:10:24.251Z,84.40
2019-01-27T04:12:54.738Z,84.30
2019-01-27T04:15:25.509Z,84.30
2019-01-27T04:17:56.119Z,84.10
2019-01-27T04:20:26.612Z,84.10
2019-01-27T04:22:57.447Z,84.00
2019-01-27T04:25:27.947Z,84.10
2019-01-27T04:27:58.413Z,84.30
2019-01-27T04:30:31.618Z,84.30
2019-01-27T04:33:02.099Z,84.40
2019-01-27T04:35:33.529Z,84.90
2019-01-27T04:38:04.326Z,85.60
2019-01-27T04:40:34.775Z,85.90
2019-01-27T04:43:05.578Z,86.30
2019-01-27T04:45:37.253Z,86.50
2019-01-27T04:48:08.755Z,86.90
2019-01-27T04:50:39.220Z,87.00
2019-01-27T04:53:09.784Z,87.40
2019-01-27T04:55:40.243Z,87.20
2019-01-27T04:58:10.718Z,87.40
2019-01-27T05:00:41.190Z,87.50
2019-01-27T05:03:21.859Z,87.70
2019-01-27T05:05:52.343Z,87.90
2019-01-27T05:08:23.172Z,87.90
2019-01-27T05:10:53.617Z,87.90
2019-01-27T05:13:24.081Z,87.90
2019-01-27T05:15:54.531Z,88.10
2019-01-27T05:18:25.016Z,87.70
2019-01-27T05:20:55.472Z,87.60
2019-01-27T05:23:25.923Z,87.60
2019-01-27T05:25:56.377Z,87.70
2019-01-27T05:28:26.843Z,87.70
2019-01-27T05:30:57.282Z,87.90
2019-01-27T05:33:27.772Z,88.20
2019-01-27T05:35:58.210Z,88.80
2019-01-27T05:38:28.650Z,88.80
2019-01-27T05:40:59.106Z,88.80
2019-01-27T05:43:29.591Z,89.40
2019-01-27T05:46:00.039Z,89.00
2019-01-27T05:48:30.515Z,89.10
2019-01-27T05:51:00.958Z,89.20
2019-01-27T05:53:32.099Z,89.50
2019-01-27T05:56:02.674Z,89.60
2019-01-27T05:58:33.434Z,89.60
2019-01-27T06:01:04.331Z,89.60
2019-01-27T06:03:34.837Z,89.40
2019-01-27T06:06:05.675Z,89.10
2019-01-27T06:08:36.166Z,89.00
2019-01-27T06:11:06.625Z,88.90
2019-01-27T06:13:37.378Z,89.20
2019-01-27T06:16:07.890Z,89.10
2019-01-27T06:18:38.331Z,89.50
2019-01-27T06:21:08.799Z,89.50
2019-01-27T06:23:39.287Z,89.30
2019-01-27T06:26:09.758Z,89.10
2019-01-27T06:28:40.235Z,89.20
2019-01-27T06:31:10.703Z,89.20
2019-01-27T06:33:51.735Z,89.00
2019-01-27T06:36:22.223Z,89.10
2019-01-27T06:38:52.682Z,89.30
2019-01-27T06:41:23.562Z,89.10
2019-01-27T06:43:54.083Z,89.40
2019-01-27T06:46:25.423Z,89.40
2019-01-27T06:48:56.065Z,89.20
2019-01-27T06:51:26.512Z,89.20
2019-01-27T06:53:57.054Z,89.40
2019-01-27T06:56:27.557Z,89.20
2019-01-27T06:59:05.618Z,89.10
2019-01-27T07:01:41.526Z,89.30
2019-01-27T07:04:16.811Z,89.30
2019-01-27T07:07:06.582Z,89.50
2019-01-27T07:10:02.180Z,89.50
2019-01-27T07:12:58.706Z,90.10
2019-01-27T07:15:41.322Z,89.70
2019-01-27T07:18:27.688Z,90.00
2019-01-27T07:21:17.190Z,90.00
2019-01-27T07:24:05.426Z,90.10
2019-01-27T07:26:58.087Z,90.20
2019-01-27T07:29:48.070Z,90.20
2019-01-27T07:32:43.789Z,90.40
2019-01-27T07:35:39.207Z,90.50
2019-01-27T07:38:37.839Z,90.50
2019-01-27T07:41:39.427Z,90.20
2019-01-27T07:44:47.379Z,90.20
2019-01-27T07:47:26.027Z,90.10
2019-01-27T07:50:33.561Z,90.00
2019-01-27T07:53:17.617Z,90.20
2019-01-27T07:56:06.099Z,90.30
2019-01-27T07:58:50.830Z,90.20
2019-01-27T08:01:28.942Z,90.30
2019-01-27T08:04:17.155Z,90.30
2019-01-27T08:07:09.706Z,90.20
2019-01-27T08:09:59.182Z,90.40
2019-01-27T08:12:37.674Z,90.30
2019-01-27T08:15:26.289Z,90.00
2019-01-27T08:18:22.908Z,90.10
2019-01-27T08:21:21.506Z,90.10
2019-01-27T08:24:23.387Z,89.70
2019-01-27T08:27:06.370Z,89.70
2019-01-27T08:30:10.927Z,89.80
2019-01-27T08:32:59.082Z,90.10
2019-01-27T08:35:47.641Z,90.20
2019-01-27T08:38:33.401Z,90.10
2019-01-27T08:41:23.400Z,90.00
2019-01-27T08:44:05.195Z,89.40
2019-01-27T08:46:54.334Z,88.80
2019-01-27T08:49:24.791Z,89.30
2019-01-27T08:51:55.280Z,88.80
2019-01-27T08:54:25.717Z,87.60
2019-01-27T08:56:56.571Z,88.40
2019-01-27T08:59:27.293Z,88.80
2019-01-27T09:02:19.201Z,87.90
2019-01-27T09:05:07.562Z,87.60
2019-01-27T09:08:12.212Z,88.00
2019-01-27T09:11:07.424Z,87.60
2019-01-27T09:14:06.066Z,87.00
2019-01-27T09:16:55.557Z,86.90
2019-01-27T09:19:51.178Z,86.70
2019-01-27T09:22:43.471Z,85.70
2019-01-27T09:25:51.214Z,85.20
2019-01-27T09:28:34.962Z,84.80
2019-01-27T09:31:23.201Z,84.70
2019-01-27T09:34:01.122Z,84.40
2019-01-27T09:36:47.622Z,84.90
2019-01-27T09:39:40.118Z,84.10
2019-01-27T09:42:32.666Z,84.20
2019-01-27T09:45:11.177Z,83.80
2019-01-27T09:47:56.863Z,83.30
2019-01-27T09:50:55.157Z,82.80
2019-01-27T09:53:32.963Z,82.70
2019-01-27T09:56:22.150Z,82.40
2019-01-27T09:59:13.976Z,81.60
2019-01-27T10:02:03.954Z,81.20
2019-01-27T10:04:39.715Z,80.50
2019-01-27T10:07:27.914Z,79.30
2019-01-27T10:10:17.698Z,79.30
2019-01-27T10:13:02.234Z,79.40
2019-01-27T10:15:53.290Z,80.10
2019-01-27T10:18:42.807Z,80.00
2019-01-27T10:21:38.921Z,79.90
2019-01-27T10:24:27.099Z,80.40
2019-01-27T10:27:12.140Z,79.40
2019-01-27T10:30:00.595Z,79.20
2019-01-27T10:32:50.090Z,78.70
2019-01-27T10:35:57.690Z,78.90
2019-01-27T10:38:35.689Z,78.90
2019-01-27T10:41:21.330Z,79.00
2019-01-27T10:44:19.649Z,78.40
2019-01-27T10:47:07.773Z,78.50
2019-01-27T10:50:00.511Z,78.60
2019-01-27T10:52:48.691Z,79.10
2019-01-27T10:55:41.318Z,78.40
2019-01-27T10:58:29.702Z,78.30
2019-01-27T11:01:12.238Z,79.30
2019-01-27T11:04:00.046Z,78.50
2019-01-27T11:07:08.106Z,78.90
2019-01-27T11:10:00.655Z,78.60
2019-01-27T11:12:42.934Z,78.80
2019-01-27T11:15:33.420Z,79.00
2019-01-27T11:18:23.305Z,79.40
2019-01-27T11:21:18.855Z,79.70
2019-01-27T11:24:07.008Z,79.50
2019-01-27T11:26:45.046Z,79.70
2019-01-27T11:29:28.262Z,79.60
2019-01-27T11:32:29.809Z,79.70
2019-01-27T11:35:20.287Z,79.30
2019-01-27T11:38:28.154Z,79.30
2019-01-27T11:41:36.071Z,79.40
2019-01-27T11:44:24.319Z,79.40
2019-01-27T11:47:19.791Z,79.60
2019-01-27T11:50:04.161Z,79.60
2019-01-27T11:52:53.250Z,79.70
2019-01-27T11:55:23.749Z,79.40
2019-01-27T11:57:54.240Z,79.30
2019-01-27T12:00:31.179Z,80.50
2019-01-27T12:03:01.654Z,80.40
2019-01-27T12:05:32.165Z,76.10
2019-01-27T12:08:03.590Z,74.60
2019-01-27T12:10:34.086Z,73.70
2019-01-27T12:13:04.566Z,72.90
2019-01-27T12:15:35.050Z,73.10
2019-01-27T12:18:05.492Z,73.60
2019-01-27T12:20:35.937Z,73.80
2019-01-27T12:23:06.393Z,73.10
2019-01-27T12:25:37.778Z,73.70
2019-01-27T12:28:08.305Z,74.90
2019-01-27T12:30:38.767Z,75.80
2019-01-27T12:33:09.230Z,75.10
2019-01-27T12:35:39.701Z,74.90
2019-01-27T12:38:10.186Z,73.10
2019-01-27T12:40:40.630Z,69.60
2019-01-27T12:43:11.105Z,68.40
2019-01-27T12:45:41.548Z,67.80
2019-01-27T12:48:12.028Z,67.80
2019-01-27T12:50:42.473Z,66.00
2019-01-27T12:53:12.917Z,64.40
2019-01-27T12:55:43.367Z,62.20
2019-01-27T12:58:15.984Z,60.90
2019-01-27T13:00:57.779Z,59.00
2019-01-27T13:03:28.215Z,57.50
2019-01-27T13:05:58.708Z,58.20
2019-01-27T13:08:29.218Z,59.40
2019-01-27T13:11:11.576Z,58.90
2019-01-27T13:13:42.096Z,58.20
2019-01-27T13:16:13.923Z,57.00
2019-01-27T13:18:44.431Z,55.60
2019-01-27T13:21:14.973Z,53.00
2019-01-27T13:23:45.458Z,51.40
2019-01-27T13:26:15.908Z,50.80
2019-01-27T13:28:46.437Z,50.90
2019-01-27T13:31:16.802Z,52.00
2019-01-27T13:33:47.268Z,52.40
2019-01-27T13:36:17.775Z,53.00
2019-01-27T13:38:51.130Z,54.30
2019-01-27T13:41:20.490Z,54.90
2019-01-27T13:43:51.367Z,55.20
2019-01-27T13:46:21.856Z,56.80
2019-01-27T13:48:52.323Z,58.00
2019-01-27T13:51:23.022Z,58.70
2019-01-27T13:53:53.762Z,59.70
2019-01-27T13:56:25.230Z,60.40
2019-01-27T13:58:56.149Z,61.70
2019-01-27T14:01:26.924Z,62.50
2019-01-27T14:03:57.383Z,63.30
2019-01-27T14:06:27.847Z,63.40
2019-01-27T14:08:58.306Z,63.70
2019-01-27T14:11:28.786Z,63.90
2019-01-27T14:13:59.528Z,63.80
2019-01-27T14:16:30.023Z,64.30
2019-01-27T14:19:00.619Z,64.90
2019-01-27T14:21:31.192Z,66.20
2019-01-27T14:24:01.930Z,65.90
2019-01-27T14:26:33.195Z,66.60
2019-01-27T14:29:03.755Z,67.20
2019-01-27T14:31:34.281Z,67.50
2019-01-27T14:34:04.927Z,67.90
2019-01-27T14:36:35.457Z,68.80
2019-01-27T14:39:08.211Z,69.10
2019-01-27T14:41:39.107Z,69.50
2019-01-27T14:44:09.641Z,69.80
2019-01-27T14:46:40.122Z,70.00
2019-01-27T14:49:10.558Z,70.10
2019-01-27T14:51:41.002Z,70.50
2019-01-27T14:54:11.822Z,70.70
2019-01-27T14:56:42.730Z,71.10
2019-01-27T14:59:13.702Z,71.20
2019-01-27T15:01:44.177Z,71.20
2019-01-27T15:04:14.625Z,71.30
2019-01-27T15:06:45.067Z,71.90
2019-01-27T15:09:15.930Z,71.70
2019-01-27T15:11:46.439Z,71.60
2019-01-27T15:14:16.902Z,71.90
2019-01-27T15:16:47.353Z,71.70
2019-01-27T15:19:18.121Z,71.80
2019-01-27T15:21:48.810Z,71.60
2019-01-27T15:24:19.337Z,71.40
2019-01-27T15:26:49.811Z,71.30
2019-01-27T15:29:20.245Z,71.00
2019-01-27T15:31:50.703Z,71.20
2019-01-27T15:34:21.145Z,71.50
2019-01-27T15:36:52.034Z,71.40
2019-01-27T15:39:22.622Z,71.90
2019-01-27T15:41:53.064Z,72.40
2019-01-27T15:44:23.530Z,72.60
2019-01-27T15:46:54.038Z,72.60
2019-01-27T15:49:24.565Z,72.80
2019-01-27T15:51:55.075Z,73.20
2019-01-27T15:54:25.954Z,73.30
2019-01-27T15:56:56.425Z,73.60
2019-01-27T15:59:26.935Z,73.50
2019-01-27T16:01:57.405Z,73.60
2019-01-27T16:04:28.981Z,73.60
2019-01-27T16:07:00.125Z,73.70
2019-01-27T16:09:30.555Z,73.80
2019-01-27T16:12:01.067Z,74.10
2019-01-27T16:14:31.516Z,73.80
2019-01-27T16:17:01.984Z,73.30
2019-01-27T16:19:32.421Z,72.80
2019-01-27T16:22:02.925Z,72.00
2019-01-27T16:24:36.527Z,71.70
2019-01-27T16:27:07.034Z,70.50
2019-01-27T16:30:11.627Z,70.20
2019-01-27T16:32:42.677Z,69.70
2019-01-27T16:35:16.697Z,69.70
2019-01-27T16:37:47.164Z,69.10
2019-01-27T16:40:18.597Z,69.40
2019-01-27T16:42:49.121Z,69.10
2019-01-27T16:45:19.690Z,68.50
2019-01-27T16:47:50.142Z,68.70
2019-01-27T16:50:20.615Z,68.30
2019-01-27T16:52:51.082Z,68.50
2019-01-27T16:55:21.553Z,68.10
2019-01-27T16:57:52.015Z,67.80
2019-01-27T17:00:24.885Z,68.30
2019-01-27T17:02:55.335Z,69.10
2019-01-27T17:05:25.791Z,70.20
2019-01-27T17:07:56.309Z,71.40
2019-01-27T17:10:28.128Z,74.90
2019-01-27T17:12:58.881Z,76.40
2019-01-27T17:15:29.508Z,77.80
2019-01-27T17:18:00.085Z,79.40
2019-01-27T17:20:30.559Z,79.90
2019-01-27T17:23:01.092Z,80.80
2019-01-27T17:25:31.547Z,81.00
2019-01-27T17:28:01.975Z,82.00
2019-01-27T17:30:32.420Z,82.50
2019-01-27T17:33:02.863Z,83.00
2019-01-27T17:35:33.290Z,83.70
2019-01-27T17:38:03.762Z,84.10
2019-01-27T17:40:34.205Z,84.40
2019-01-27T17:43:04.725Z,84.70
2019-01-27T17:45:35.195Z,85.60
2019-01-27T17:48:10.791Z,85.50
2019-01-27T17:50:41.651Z,86.40
2019-01-27T17:53:12.207Z,86.40
2019-01-27T17:55:43.552Z,86.20
2019-01-27T17:58:54.355Z,85.90
2019-01-27T18:01:47.733Z,86.00
2019-01-27T18:04:35.927Z,86.40
2019-01-27T18:07:16.079Z,86.40
2019-01-27T18:10:04.681Z,86.40
2019-01-27T18:12:40.118Z,86.30
2019-01-27T18:15:10.827Z,86.30
2019-01-27T18:17:41.370Z,86.40
2019-01-27T18:20:13.786Z,87.20
2019-01-27T18:22:44.242Z,86.60
2019-01-27T18:25:14.781Z,86.70
2019-01-27T18:27:45.246Z,86.50
2019-01-27T18:30:21.469Z,86.70
2019-01-27T18:32:52.957Z,86.70
2019-01-27T18:35:23.450Z,87.00
2019-01-27T18:37:53.950Z,86.90
2019-01-27T18:40:24.501Z,87.00
2019-01-27T18:42:55.195Z,86.60
2019-01-27T18:45:25.743Z,86.50
2019-01-27T18:47:56.417Z,86.70
2019-01-27T18:50:26.990Z,86.70
2019-01-27T18:53:07.873Z,86.60
2019-01-27T18:55:43.252Z,86.70
2019-01-27T18:58:33.085Z,86.60
2019-01-27T19:01:26.104Z,87.50
2019-01-27T19:04:03.198Z,88.00
2019-01-27T19:06:51.650Z,89.00
2019-01-27T19:09:46.979Z,88.90
2019-01-27T19:12:36.802Z,88.80
2019-01-27T19:15:27.159Z,89.30
2019-01-27T19:18:15.491Z,89.60
2019-01-27T19:20:54.282Z,89.70
2019-01-27T19:23:32.208Z,90.00
2019-01-27T19:26:24.605Z,89.70
2019-01-27T19:29:17.108Z,90.20
2019-01-27T19:31:54.639Z,90.30
2019-01-27T19:34:31.755Z,90.30
2019-01-27T19:37:09.633Z,90.30
2019-01-27T19:39:54.573Z,90.40
2019-01-27T19:42:40.991Z,90.50
2019-01-27T19:45:29.489Z,90.60
2019-01-27T19:48:07.658Z,90.70
2019-01-27T19:50:55.863Z,90.70
2019-01-27T19:53:44.295Z,90.80
2019-01-27T19:56:36.858Z,90.90
2019-01-27T19:59:29.523Z,91.10
2019-01-27T20:02:17.854Z,91.00
2019-01-27T20:05:19.657Z,91.00
2019-01-27T20:08:21.012Z,91.10
2019-01-27T20:10:59.627Z,91.10
2019-01-27T20:13:47.881Z,91.10
2019-01-27T20:16:38.338Z,91.20
2019-01-27T20:19:17.689Z,91.10
2019-01-27T20:22:05.894Z,91.10
2019-01-27T20:24:54.194Z,91.00
2019-01-27T20:27:59.467Z,91.10
2019-01-27T20:30:46.962Z,91.10
2019-01-27T20:33:43.187Z,91.00
2019-01-27T20:36:35.851Z,91.10
2019-01-27T20:39:22.643Z,91.30
2019-01-27T20:42:18.007Z,91.30
2019-01-27T20:45:03.087Z,91.40
2019-01-27T20:47:41.704Z,91.30
2019-01-27T20:50:39.618Z,91.20
2019-01-27T20:53:25.860Z,91.20
2019-01-27T20:56:10.686Z,91.30
2019-01-27T20:58:58.150Z,91.30
2019-01-27T21:01:45.086Z,91.20
2019-01-27T21:04:45.666Z,91.30
2019-01-27T21:07:38.024Z,91.10
2019-01-27T21:10:33.446Z,91.10
2019-01-27T21:13:11.658Z,91.10
2019-01-27T21:15:48.112Z,91.20
2019-01-27T21:18:25.599Z,91.10
2019-01-27T21:20:55.026Z,91.10
2019-01-27T21:23:24.290Z,90.90
2019-01-27T21:25:53.557Z,90.90
2019-01-27T21:28:22.855Z,91.00
2019-01-27T21:30:52.314Z,91.00
2019-01-27T21:33:21.605Z,90.80
2019-01-27T21:35:50.891Z,90.70
2019-01-27T21:38:20.150Z,90.60
2019-01-27T21:40:49.422Z,90.50
2019-01-27T21:43:18.685Z,90.10
2019-01-27T21:45:48.017Z,90.10
2019-01-27T21:48:17.397Z,90.20
2019-01-27T21:50:46.719Z,90.10
2019-01-27T21:53:16.117Z,90.10
2019-01-27T21:55:45.393Z,90.20
2019-01-27T21:58:14.653Z,90.40
2019-01-27T22:00:44.007Z,90.20
2019-01-27T22:03:13.287Z,90.30
2019-01-27T22:05:42.603Z,90.30
2019-01-27T22:08:11.959Z,90.20
2019-01-27T22:10:41.221Z,90.10
2019-01-27T22:13:10.491Z,90.10
2019-01-27T22:15:39.746Z,90.00
2019-01-27T22:18:09.057Z,90.10
2019-01-27T22:20:38.626Z,90.00
2019-01-27T22:23:08.207Z,90.10
2019-01-27T22:25:37.578Z,90.40
2019-01-27T22:28:06.834Z,90.40
2019-01-27T22:30:36.147Z,90.50
2019-01-27T22:33:05.892Z,90.60
2019-01-27T22:35:35.234Z,90.70
2019-01-27T22:38:05.970Z,90.70
2019-01-27T22:40:35.314Z,90.80
2019-01-27T22:43:04.607Z,90.90
2019-01-27T22:45:34.234Z,90.80
2019-01-27T22:48:03.831Z,90.80
2019-01-27T22:50:34.255Z,90.90
2019-01-27T22:53:03.734Z,91.10
2019-01-27T22:58:07.970Z,91.10
2019-01-27T23:01:43.262Z,90.90
2019-01-27T23:04:20.059Z,91.20
2019-01-27T23:06:50.966Z,91.10
2019-01-27T23:09:21.746Z,91.00
2019-01-27T23:11:52.480Z,91.00
2019-01-27T23:14:22.945Z,91.10
2019-01-27T23:16:53.454Z,91.10
2019-01-27T23:19:23.893Z,91.00
2019-01-27T23:21:54.375Z,91.00
2019-01-27T23:24:24.863Z,91.00
2019-01-27T23:26:55.314Z,91.00
2019-01-27T23:29:25.753Z,90.90
2019-01-27T23:31:56.206Z,90.90
2019-01-27T23:34:26.681Z,91.20
2019-01-27T23:36:57.178Z,90.80
2019-01-27T23:39:27.685Z,90.80
2019-01-27T23:41:58.121Z,90.80
2019-01-27T23:44:28.558Z,90.70
2019-01-27T23:46:59.019Z,90.90
2019-01-27T23:49:29.472Z,90.70
2019-01-27T23:51:59.969Z,90.70
2019-01-27T23:54:30.618Z,90.80
2019-01-27T23:57:01.326Z,91.00
2019-01-27T23:59:31.790Z,91.00
